KBBB/BBB METAR and TAF weather

Enter ICAO airport designator
Station Type Date Time Source
KBBB METAR 2018/12/10 18:15 UTC NOAA

KBBB 101815Z AUTO 24004KT 10SM CLR M02/M06 A3007 RMK AO2


Station Type Date Time Source
KBBB Decoded METAR 2018/12/10 18:15 UTC NOAA

Benson Municipal, MN, United States (KBBB) 45-19N 095-39W
Dec 10, 2018 - 01:15 PM EST / 2018.12.10 1815 UTC
Wind: from the WSW (240 degrees) at 5 MPH (4 KT):0
Visibility: 10 mile(s):0
Sky conditions: clear
Temperature: 28 F (-2 C)
Windchill: 23 F (-5 C):1
Dew Point: 21 F (-6 C)
Relative Humidity: 74%
Pressure (altimeter): 30.07 in. Hg (1018 hPa)
ob: KBBB 101815Z AUTO 24004KT 10SM CLR M02/M06 A3007 RMK AO2
cycle: 18

Station Type Date Time Source
KBBB TAF UTC NOAA

Error!


Example: see airport list